createdAt,value
2019-05-23T00:04:29.365Z,2.47
2019-05-23T00:09:34.153Z,2.87
2019-05-23T00:14:44.364Z,2.00
2019-05-23T00:19:50.328Z,1.37
2019-05-23T00:24:55.843Z,1.20
2019-05-23T00:30:02.115Z,1.17
2019-05-23T00:40:23.167Z,1.30
2019-05-23T00:45:29.370Z,1.30
2019-05-23T00:50:34.832Z,1.90
2019-05-23T00:55:39.690Z,2.90
2019-05-23T01:00:44.515Z,2.20
2019-05-23T01:05:50.169Z,2.00
2019-05-23T01:10:56.517Z,2.90
2019-05-23T01:16:01.193Z,4.60
2019-05-23T01:21:13.956Z,5.53
2019-05-23T01:26:20.252Z,5.60
2019-05-23T01:31:27.784Z,7.33
2019-05-23T01:36:33.400Z,7.80
2019-05-23T01:41:39.691Z,9.93
2019-05-23T01:46:44.982Z,14.57
2019-05-23T01:51:50.725Z,19.00
2019-05-23T01:56:56.188Z,19.80
2019-05-23T02:02:00.902Z,19.63
2019-05-23T02:07:06.183Z,19.47
2019-05-23T02:12:12.092Z,20.00
2019-05-23T02:17:17.376Z,18.37
2019-05-23T02:22:22.775Z,16.97
2019-05-23T02:27:28.051Z,17.77
2019-05-23T02:32:34.173Z,16.77
2019-05-23T02:37:58.192Z,17.20
2019-05-23T02:43:05.585Z,17.40
2019-05-23T02:48:14.278Z,16.23
2019-05-23T02:53:21.119Z,17.13
2019-05-23T02:58:33.734Z,17.00
2019-05-23T03:03:40.077Z,17.40
2019-05-23T03:08:46.477Z,20.13
2019-05-23T03:13:53.320Z,18.30
2019-05-23T03:19:01.432Z,20.10
2019-05-23T03:24:08.175Z,20.70
2019-05-23T03:29:12.943Z,21.27
2019-05-23T03:34:21.246Z,19.23
2019-05-23T03:39:26.305Z,22.57
2019-05-23T03:44:32.218Z,20.10
2019-05-23T03:49:37.107Z,19.17
2019-05-23T03:54:43.834Z,18.03
2019-05-23T03:59:48.947Z,18.43
2019-05-23T04:04:54.045Z,18.87
2019-05-23T04:09:59.210Z,18.37
2019-05-23T04:15:04.825Z,18.07
2019-05-23T04:26:00.958Z,20.47
2019-05-23T04:31:06.175Z,18.63
2019-05-23T04:36:10.952Z,18.23
2019-05-23T04:41:16.146Z,16.63
2019-05-23T04:46:21.367Z,14.37
2019-05-23T04:51:26.565Z,15.00
2019-05-23T04:56:31.490Z,14.57
2019-05-23T05:01:37.491Z,15.50
2019-05-23T05:06:42.376Z,15.27
2019-05-23T05:11:47.460Z,15.30
2019-05-23T05:16:52.324Z,16.10
2019-05-23T05:21:57.220Z,14.97
2019-05-23T05:27:02.237Z,15.40
2019-05-23T05:32:07.864Z,13.60
2019-05-23T05:37:12.775Z,12.70
2019-05-23T05:42:18.223Z,11.73
2019-05-23T05:47:23.016Z,11.93
2019-05-23T05:52:27.983Z,12.50
2019-05-23T05:57:32.766Z,13.30
2019-05-23T06:02:37.765Z,15.63
2019-05-23T06:07:43.822Z,14.43
2019-05-23T06:12:48.541Z,14.53
2019-05-23T06:17:53.801Z,13.10
2019-05-23T06:22:58.745Z,10.10
